Time;durP1;ratioP1;P1;durP2;ratioP2;P2;SDS_P1;SDS_P2;PMS_P1;PMS_P2;Temp;Humidity;BMP_temperature;BMP_pressure;BME280_temperature;BME280_humidity;BME280_pressure;Samples;Min_cycle;Max_cycle;Signal;HPM_P1;HPM_P2
2024/02/13 00:01:11;;;;;;;8.90;3.53;;;;;;;7.60;79.56;96489.59;5031870;28;20057;-80
2024/02/13 00:03:39;;;;;;;6.00;3.78;;;;;;;7.60;80.06;96494.78;5031962;28;20055;-80
2024/02/13 00:06:09;;;;;;;9.65;3.28;;;;;;;7.61;80.94;96500.81;5032386;28;20088;-80
2024/02/13 00:08:37;;;;;;;7.57;3.42;;;;;;;7.64;80.08;96501.25;5035137;28;20081;-80
2024/02/13 00:11:14;;;;;;;7.13;3.03;;;;;;;7.64;78.70;96498.66;5036671;28;20053;-80
2024/02/13 00:13:45;;;;;;;6.82;3.28;;;;;;;7.67;80.14;96500.13;5036023;28;20103;-80
2024/02/13 00:16:13;;;;;;;5.60;3.25;;;;;;;7.64;78.38;96506.44;5038295;28;20412;-80
2024/02/13 00:18:40;;;;;;;7.38;3.28;;;;;;;7.61;79.02;96509.38;5035584;28;20080;-79
2024/02/13 00:21:08;;;;;;;6.18;2.97;;;;;;;7.61;79.18;96513.78;5035965;28;20147;-79
2024/02/13 00:23:36;;;;;;;5.38;3.08;;;;;;;7.61;79.39;96524.97;5035363;28;20081;-80
2024/02/13 00:26:07;;;;;;;6.60;3.47;;;;;;;7.58;77.97;96530.47;5048590;28;20073;-80
2024/02/13 00:28:36;;;;;;;6.13;2.63;;;;;;;7.53;76.05;96537.16;5036072;28;20049;-79
2024/02/13 00:31:05;;;;;;;6.55;3.15;;;;;;;7.54;77.74;96538.75;5035494;28;20159;-80
2024/02/13 00:33:34;;;;;;;10.43;2.97;;;;;;;7.51;76.37;96546.88;5035533;28;20124;-80
2024/02/13 00:36:02;;;;;;;3.08;2.38;;;;;;;7.48;75.99;96547.19;5035279;28;20061;-80
2024/02/13 00:38:30;;;;;;;5.13;2.85;;;;;;;7.47;75.98;96551.56;5035614;28;20492;-80
2024/02/13 00:40:57;;;;;;;4.15;2.70;;;;;;;7.47;77.54;96554.16;5035584;28;20046;-80
2024/02/13 00:43:26;;;;;;;5.28;2.50;;;;;;;7.49;76.35;96556.63;5035151;28;20053;-80
2024/02/13 00:45:55;;;;;;;4.22;2.40;;;;;;;7.47;77.34;96546.38;5035156;28;20150;-80
2024/02/13 00:48:23;;;;;;;3.45;2.47;;;;;;;7.45;78.33;96552.72;5035348;28;20053;-80
2024/02/13 00:50:52;;;;;;;3.80;2.60;;;;;;;7.48;79.05;96557.56;5035120;28;20057;-79
2024/02/13 00:53:20;;;;;;;4.80;2.72;;;;;;;7.54;79.85;96562.13;5035574;28;20505;-80
2024/02/13 00:55:49;;;;;;;5.43;2.35;;;;;;;7.56;80.02;96570.56;5035318;28;20049;-80
2024/02/13 00:58:17;;;;;;;5.93;2.85;;;;;;;7.60;80.21;96577.03;5035486;28;20056;-79
2024/02/13 01:00:45;;;;;;;2.95;2.20;;;;;;;7.62;80.31;96580.28;5035069;28;20053;-80
2024/02/13 01:03:13;;;;;;;13.88;3.70;;;;;;;7.65;80.89;96585.16;5034664;28;20053;-80
2024/02/13 01:05:42;;;;;;;7.72;2.50;;;;;;;7.61;78.69;96586.47;5034951;28;20049;-79
2024/02/13 01:08:11;;;;;;;5.35;2.97;;;;;;;7.56;79.34;96588.72;5034702;28;20137;-80
2024/02/13 01:10:38;;;;;;;5.53;2.35;;;;;;;7.59;79.10;96598.78;5034832;28;20053;-80
2024/02/13 01:13:07;;;;;;;6.32;1.98;;;;;;;7.55;78.52;96600.91;5034791;28;20129;-80
2024/02/13 01:15:36;;;;;;;5.28;2.20;;;;;;;7.57;78.78;96608.53;5034468;28;20050;-80
2024/02/13 01:18:04;;;;;;;3.92;2.33;;;;;;;7.55;78.36;96607.88;5034656;28;20084;-80
2024/02/13 01:20:33;;;;;;;4.65;2.10;;;;;;;7.51;77.82;96609.97;5034475;28;20471;-80
2024/02/13 01:23:01;;;;;;;4.75;2.28;;;;;;;7.52;77.68;96610.78;5034339;28;20073;-80
2024/02/13 01:25:30;;;;;;;6.72;2.50;;;;;;;7.56;78.97;96612.09;5034294;28;20041;-80
2024/02/13 01:27:58;;;;;;;5.75;2.50;;;;;;;7.54;77.60;96625.25;5034316;28;20081;-80
2024/02/13 01:30:26;;;;;;;4.93;2.63;;;;;;;7.50;76.17;96634.31;5048727;22;20097;-78
2024/02/13 01:32:53;;;;;;;4.10;2.28;;;;;;;7.49;76.14;96635.28;5074669;28;20131;-77
2024/02/13 01:35:21;;;;;;;5.43;2.42;;;;;;;7.47;75.00;96634.63;5074820;28;20480;-79
2024/02/13 01:37:50;;;;;;;4.32;2.40;;;;;;;7.45;75.51;96641.75;5075263;28;20044;-78
2024/02/13 01:40:18;;;;;;;7.22;2.78;;;;;;;7.46;76.58;96646.00;5073780;28;20044;-78
2024/02/13 01:42:48;;;;;;;8.05;2.90;;;;;;;7.45;77.01;96649.56;5054703;28;20484;-78
2024/02/13 01:45:16;;;;;;;5.68;2.63;;;;;;;7.42;75.91;96645.50;5054887;28;20053;-80
2024/02/13 01:47:44;;;;;;;6.57;3.05;;;;;;;7.42;76.85;96648.09;5055202;28;20458;-77
2024/02/13 01:50:18;;;;;;;3.58;2.10;;;;;;;7.46;75.97;96650.38;5054782;28;20052;-79
2024/02/13 01:52:48;;;;;;;8.02;2.78;;;;;;;7.43;75.44;96649.72;5056372;28;20136;-77
2024/02/13 01:55:20;;;;;;;3.38;2.67;;;;;;;7.42;77.14;96657.66;5054859;28;20091;-77
2024/02/13 01:57:49;;;;;;;6.85;2.83;;;;;;;7.40;75.75;96665.59;5055148;28;20052;-77
2024/02/13 02:00:17;;;;;;;5.40;2.50;;;;;;;7.37;74.84;96670.31;5055308;28;20571;-80
2024/02/13 02:02:49;;;;;;;5.68;2.25;;;;;;;7.35;76.15;96678.25;5056458;28;20140;-79
2024/02/13 02:05:16;;;;;;;6.13;2.97;;;;;;;7.33;74.60;96675.00;5056186;28;20626;-78
2024/02/13 02:07:44;;;;;;;6.35;2.35;;;;;;;7.31;75.44;96674.34;5055772;28;20067;-79
2024/02/13 02:10:12;;;;;;;3.45;2.00;;;;;;;7.31;75.98;96671.75;5054372;28;20053;-77
2024/02/13 02:12:41;;;;;;;8.05;3.00;;;;;;;7.32;74.86;96677.75;5054499;28;20566;-77
2024/02/13 02:15:10;;;;;;;5.47;2.72;;;;;;;7.30;74.85;96677.09;5054543;28;20053;-79
2024/02/13 02:17:39;;;;;;;4.97;2.20;;;;;;;7.28;75.51;96692.00;5054046;28;20045;-78
2024/02/13 02:20:08;;;;;;;6.28;3.13;;;;;;;7.30;75.24;96684.88;5053855;28;20056;-77
2024/02/13 02:22:35;;;;;;;7.30;2.75;;;;;;;7.24;73.87;96691.53;5053914;28;20521;-78
2024/02/13 02:25:08;;;;;;;5.45;2.63;;;;;;;7.21;76.43;96687.47;5054471;28;20052;-78
2024/02/13 02:27:35;;;;;;;;;;;;;;;7.23;76.51;96685.50;5056111;28;20045;-77
2024/02/13 02:30:06;;;;;;;5.30;2.40;;;;;;;7.20;75.06;96700.59;5055385;28;19987;-78
2024/02/13 02:32:34;;;;;;;6.57;2.50;;;;;;;7.22;75.88;96690.88;5055564;28;20102;-78
2024/02/13 02:35:02;;;;;;;4.18;2.78;;;;;;;7.25;76.69;96692.34;5055182;28;20072;-78
2024/02/13 02:37:29;;;;;;;5.43;2.55;;;;;;;7.25;77.95;96697.53;5055964;28;20052;-78
2024/02/13 02:39:57;;;;;;;6.43;3.22;;;;;;;7.26;77.87;96704.34;5055507;28;20419;-76
2024/02/13 02:42:26;;;;;;;6.90;2.60;;;;;;;7.24;77.42;96707.09;5055366;28;20198;-77
2024/02/13 02:44:54;;;;;;;7.80;2.53;;;;;;;7.26;77.00;96704.34;5055533;28;20120;-78
2024/02/13 02:47:22;;;;;;;5.63;2.03;;;;;;;7.27;77.13;96711.16;5054986;28;20508;-77
2024/02/13 02:49:50;;;;;;;6.22;2.30;;;;;;;7.27;76.95;96717.16;5055037;28;20053;-77
2024/02/13 02:52:17;;;;;;;10.07;2.90;;;;;;;7.23;74.99;96716.66;5054883;28;20053;-80
2024/02/13 02:54:45;;;;;;;5.40;3.20;;;;;;;7.21;75.69;96718.63;5054810;28;20048;-77
2024/02/13 02:57:12;;;;;;;7.07;2.83;;;;;;;7.22;76.56;96724.59;5054988;28;20488;-77
2024/02/13 02:59:43;;;;;;;4.80;2.80;;;;;;;7.26;77.58;96719.91;5055916;28;20045;-76
2024/02/13 03:02:11;;;;;;;4.50;2.75;;;;;;;7.27;78.12;96724.94;5053735;28;20128;-77
2024/02/13 03:04:38;;;;;;;5.55;2.85;;;;;;;7.25;75.55;96728.66;5053184;28;20076;-78
2024/02/13 03:07:08;;;;;;;8.15;2.78;;;;;;;7.23;76.34;96731.41;5052784;28;20489;-78
2024/02/13 03:09:35;;;;;;;4.75;2.30;;;;;;;7.22;76.71;96740.19;5053273;28;20133;-77
2024/02/13 03:12:03;;;;;;;9.88;3.22;;;;;;;7.17;75.01;96747.59;5053203;28;20477;-77
2024/02/13 03:14:30;;;;;;;4.85;3.00;;;;;;;7.14;77.44;96742.72;5052837;28;20057;-77
2024/02/13 03:16:59;;;;;;;5.32;2.78;;;;;;;7.19;79.83;96745.66;5053338;28;20044;-79
2024/02/13 03:19:27;;;;;;;6.15;2.88;;;;;;;7.19;78.61;96743.91;5052944;28;20052;-77
2024/02/13 03:21:54;;;;;;;7.60;2.33;;;;;;;7.21;78.51;96748.91;5053097;28;20065;-79
2024/02/13 03:24:22;;;;;;;10.43;2.58;;;;;;;7.21;76.78;96756.69;5052689;28;20055;-79
2024/02/13 03:26:49;;;;;;;9.75;2.22;;;;;;;7.20;76.09;96757.69;5053489;28;20239;-78
2024/02/13 03:29:17;;;;;;;4.18;1.88;;;;;;;7.19;76.11;96759.47;5053189;28;20057;-79
2024/02/13 03:31:44;;;;;;;6.55;2.33;;;;;;;7.16;75.35;96761.56;5053086;28;20049;-77
2024/02/13 03:34:13;;;;;;;5.40;2.33;;;;;;;7.12;77.60;96755.03;5052822;28;20045;-80
2024/02/13 03:36:42;;;;;;;8.57;2.58;;;;;;;7.12;76.79;96757.63;5052973;28;20048;-78
2024/02/13 03:39:09;;;;;;;9.68;2.85;;;;;;;7.08;75.56;96759.72;5053097;28;20480;-78
2024/02/13 03:41:41;;;;;;;6.72;2.13;;;;;;;7.12;77.82;96770.63;5053400;28;20155;-77
2024/02/13 03:44:11;;;;;;;6.13;2.35;;;;;;;7.15;78.11;96772.88;5057040;28;20049;-77
2024/02/13 03:46:39;;;;;;;5.47;2.50;;;;;;;7.10;76.10;96768.16;5057772;28;20073;-76
2024/02/13 03:49:08;;;;;;;7.70;2.40;;;;;;;7.08;76.26;96764.09;5057270;28;20098;-77
2024/02/13 03:51:38;;;;;;;4.82;2.58;;;;;;;7.08;78.83;96767.50;5057039;28;20057;-80
2024/02/13 03:54:07;;;;;;;4.97;2.50;;;;;;;7.10;78.92;96768.16;5056689;28;20527;-77
2024/02/13 03:56:34;;;;;;;5.60;2.30;;;;;;;7.10;79.26;96773.34;5057003;28;20132;-80
2024/02/13 03:59:02;;;;;;;5.10;2.15;;;;;;;7.11;79.37;96779.38;5056695;28;20056;-78
2024/02/13 04:01:30;;;;;;;10.32;2.60;;;;;;;7.11;77.84;96784.56;5057244;28;20052;-77
2024/02/13 04:03:58;;;;;;;6.53;2.13;;;;;;;7.12;77.54;96786.19;5057318;28;20465;-77
2024/02/13 04:06:26;;;;;;;6.10;2.55;;;;;;;7.16;78.80;96784.91;5057014;28;20067;-77
2024/02/13 04:08:56;;;;;;;6.10;2.60;;;;;;;7.17;79.45;96782.16;5056905;28;20076;-76
2024/02/13 04:11:23;;;;;;;5.60;2.17;;;;;;;7.14;77.07;96787.63;5057412;28;20049;-77
2024/02/13 04:13:51;;;;;;;9.25;2.38;;;;;;;7.11;77.90;96790.56;5056733;28;20079;-78
2024/02/13 04:16:19;;;;;;;5.60;2.47;;;;;;;7.13;79.27;96788.63;5056893;28;20099;-77
2024/02/13 04:18:47;;;;;;;6.93;2.83;;;;;;;7.15;78.40;96798.81;5057132;28;20140;-79
2024/02/13 04:21:18;;;;;;;5.10;2.20;;;;;;;7.16;78.91;96792.69;5056824;28;20049;-79
2024/02/13 04:23:46;;;;;;;7.20;2.30;;;;;;;7.11;78.58;96795.75;5056097;28;20095;-76
2024/02/13 04:26:15;;;;;;;9.20;2.95;;;;;;;7.07;79.59;96798.81;5056460;28;20053;-81
2024/02/13 04:29:02;;;;;;;7.35;2.83;;;;;;;7.04;80.11;96799.94;5056268;28;20131;-76
2024/02/13 04:31:29;;;;;;;6.57;2.33;;;;;;;7.04;79.30;96796.50;5056157;28;20058;-78
2024/02/13 04:33:57;;;;;;;4.75;2.25;;;;;;;6.98;79.68;96803.13;5055962;28;20522;-78
2024/02/13 04:36:25;;;;;;;5.60;2.40;;;;;;;6.99;80.77;96799.56;5056278;28;20057;-78
2024/02/13 04:38:53;;;;;;;5.43;3.03;;;;;;;7.04;81.58;96804.28;5056416;28;20471;-77
2024/02/13 04:41:22;;;;;;;7.25;3.00;;;;;;;7.04;80.08;96799.94;5056408;28;20049;-78
2024/02/13 04:43:52;;;;;;;6.72;2.80;;;;;;;6.99;79.83;96808.16;5055815;28;20049;-78
2024/02/13 04:46:24;;;;;;;14.43;3.13;;;;;;;6.91;78.22;96807.28;5058369;28;20056;-78
2024/02/13 04:48:52;;;;;;;7.30;2.50;;;;;;;6.84;77.26;96807.09;5057338;28;20084;-82
2024/02/13 04:51:21;;;;;;;6.32;2.72;;;;;;;6.85;79.28;96802.75;5055644;28;20085;-80
2024/02/13 04:53:48;;;;;;;5.78;2.15;;;;;;;6.88;80.00;96815.38;5055537;28;20139;-81
2024/02/13 04:56:16;;;;;;;6.20;3.20;;;;;;;6.89;81.21;96802.28;5056088;28;20064;-84
2024/02/13 04:58:45;;;;;;;6.15;2.20;;;;;;;6.89;79.60;96812.66;5056610;28;20049;-83
2024/02/13 05:01:14;;;;;;;6.80;2.10;;;;;;;6.84;80.22;96808.88;5056167;28;20045;-84
2024/02/13 05:07:19;;;;;;;3.28;2.10;;;;;;;6.81;79.30;96810.00;5056389;28;20099;-79
2024/02/13 05:09:17;;;;;;;6.70;2.42;;;;;;;6.86;82.08;96809.53;5055045;28;20045;-81
2024/02/13 05:11:44;;;;;;;6.28;2.40;;;;;;;6.86;80.82;96802.56;5055401;28;20049;-81
2024/02/13 05:14:13;;;;;;;3.78;2.40;;;;;;;6.83;79.79;96802.09;5055354;28;20053;-80
2024/02/13 05:16:43;;;;;;;4.45;2.40;;;;;;;6.82;80.56;96809.03;5055708;28;20511;-79
2024/02/13 05:19:12;;;;;;;7.60;2.13;;;;;;;6.81;79.24;96810.00;5045023;28;20139;-80
2024/02/13 05:21:40;;;;;;;5.07;2.60;;;;;;;6.77;79.74;96816.47;5037241;28;20128;-81
2024/02/13 05:24:08;;;;;;;8.65;2.35;;;;;;;6.72;78.40;96816.09;5046352;28;20140;-76
2024/02/13 05:26:36;;;;;;;5.57;2.15;;;;;;;6.63;76.86;96815.25;5040872;28;20144;-78
2024/02/13 05:29:04;;;;;;;5.45;2.85;;;;;;;6.59;76.59;96814.72;5045051;28;20127;-78
2024/02/13 05:31:35;;;;;;;10.68;3.60;;;;;;;6.59;75.96;96819.91;5053107;28;20053;-78
2024/02/13 05:34:04;;;;;;;6.88;2.88;;;;;;;6.60;76.90;96820.72;5053686;28;20049;-78
2024/02/13 05:36:33;;;;;;;11.70;2.67;;;;;;;6.62;77.00;96816.19;5037471;28;20520;-78
2024/02/13 05:39:02;;;;;;;6.68;2.90;;;;;;;6.62;76.28;96816.19;5041371;28;20045;-77
2024/02/13 05:41:29;;;;;;;7.70;2.78;;;;;;;6.60;75.78;96826.72;5052588;28;20492;-78
2024/02/13 05:43:57;;;;;;;10.20;3.35;;;;;;;6.54;75.38;96824.72;5043068;28;20073;-78
2024/02/13 05:46:24;;;;;;;12.85;3.85;;;;;;;6.54;77.47;96835.09;5045099;28;20084;-78
2024/02/13 05:48:55;;;;;;;7.82;3.20;;;;;;;6.58;79.47;96838.19;5041803;28;20052;-79
2024/02/13 05:51:23;;;;;;;25.20;11.30;;;;;;;6.64;78.85;96847.97;5039705;28;20060;-77
2024/02/13 05:53:50;;;;;;;10.45;3.97;;;;;;;6.66;76.77;96838.25;5051268;28;20077;-77
2024/02/13 05:56:18;;;;;;;9.85;4.78;;;;;;;6.67;77.49;96839.06;5053491;28;20132;-79
2024/02/13 05:58:55;;;;;;;8.00;3.67;;;;;;;6.69;77.53;96839.72;5037139;28;20057;-80
2024/02/13 06:01:24;;;;;;;10.40;2.83;;;;;;;6.71;76.97;96851.59;5039978;28;20436;-79
2024/02/13 06:03:56;;;;;;;5.30;2.53;;;;;;;6.77;76.69;96855.34;5036524;28;20056;-80
2024/02/13 06:06:25;;;;;;;8.57;2.70;;;;;;;6.77;76.29;96860.53;5035078;28;20054;-77
2024/02/13 06:08:53;;;;;;;4.95;2.55;;;;;;;6.75;76.90;96857.28;5035181;28;20045;-77
2024/02/13 06:11:23;;;;;;;6.90;2.58;;;;;;;6.76;76.06;96866.69;5034321;28;20052;-80
2024/02/13 06:13:51;;;;;;;8.02;3.13;;;;;;;6.76;75.48;96858.91;5034674;28;20049;-77
2024/02/13 06:16:19;;;;;;;8.60;3.03;;;;;;;6.75;76.44;96862.47;5034991;28;20419;-79
2024/02/13 06:18:47;;;;;;;6.28;2.55;;;;;;;6.73;75.85;96859.19;5035008;28;20098;-80
2024/02/13 06:21:18;;;;;;;8.85;2.88;;;;;;;6.68;74.56;96866.63;5034485;28;20067;-77
2024/02/13 06:23:50;;;;;;;8.63;2.60;;;;;;;6.63;74.84;96871.47;5035702;28;20468;-79
2024/02/13 06:26:19;;;;;;;7.75;2.83;;;;;;;6.59;74.43;96874.34;5035832;28;20096;-79
2024/02/13 06:28:46;;;;;;;8.13;3.08;;;;;;;6.57;74.58;96873.66;5036241;28;20095;-79
2024/02/13 06:31:14;;;;;;;6.78;2.70;;;;;;;6.60;74.63;96881.16;5035810;28;20505;-81
2024/02/13 06:33:41;;;;;;;6.90;3.00;;;;;;;6.59;74.21;96886.47;5036308;28;20084;-79
2024/02/13 06:36:10;;;;;;;6.80;2.85;;;;;;;6.59;74.66;96882.09;5035683;28;20076;-78
2024/02/13 06:38:39;;;;;;;6.57;3.17;;;;;;;6.66;76.22;96889.28;5036081;28;20108;-79
2024/02/13 06:41:08;;;;;;;9.32;2.90;;;;;;;6.71;76.34;96887.06;5035576;28;20047;-84
2024/02/13 06:43:36;;;;;;;9.50;3.75;;;;;;;6.69;74.66;96894.16;5035527;28;20050;-79
2024/02/13 06:46:04;;;;;;;7.57;2.47;;;;;;;6.67;74.61;96903.88;5035157;28;20050;-78
2024/02/13 06:48:32;;;;;;;6.32;2.95;;;;;;;6.67;74.25;96906.47;5035307;28;20051;-80
2024/02/13 06:51:01;;;;;;;10.57;3.65;;;;;;;6.71;76.21;96905.19;5035131;28;20302;-83
2024/02/13 06:53:30;;;;;;;10.00;2.85;;;;;;;6.72;75.67;96910.25;5035180;28;20064;-78
2024/02/13 06:55:59;;;;;;;14.38;3.33;;;;;;;6.73;74.62;96909.25;5035297;28;20053;-81
2024/02/13 06:58:26;;;;;;;7.57;2.95;;;;;;;6.76;74.80;96905.59;5036072;28;20057;-78
2024/02/13 07:00:54;;;;;;;10.15;3.30;;;;;;;6.78;75.13;96917.44;5035134;28;20515;-81
2024/02/13 07:03:22;;;;;;;14.88;4.43;;;;;;;6.76;74.78;96918.56;5034901;28;20057;-79
2024/02/13 07:05:49;;;;;;;10.82;4.53;;;;;;;6.73;74.54;96921.41;5034690;28;20053;-79
2024/02/13 07:08:20;;;;;;;15.77;3.97;;;;;;;6.72;74.42;96925.00;5035482;28;20060;-79
2024/02/13 07:10:48;;;;;;;10.77;3.20;;;;;;;6.73;74.59;96922.22;5035191;28;20053;-80
2024/02/13 07:13:17;;;;;;;7.47;2.55;;;;;;;6.76;74.80;96927.13;5034951;28;20140;-77
2024/02/13 07:15:45;;;;;;;6.47;2.72;;;;;;;6.79;74.84;96932.00;5034354;28;20088;-78
2024/02/13 07:18:12;;;;;;;6.57;2.70;;;;;;;6.82;74.55;96930.88;5034985;28;20085;-79
2024/02/13 07:20:40;;;;;;;7.32;2.92;;;;;;;6.84;73.83;96933.34;5034908;28;20133;-78
2024/02/13 07:23:08;;;;;;;8.23;4.25;;;;;;;6.84;73.72;96934.16;5035299;28;20053;-79
2024/02/13 07:25:36;;;;;;;8.30;2.83;;;;;;;6.86;73.80;96936.59;5034640;28;20493;-79
2024/02/13 07:28:04;;;;;;;5.00;2.75;;;;;;;6.90;75.97;96932.75;5035339;28;20076;-78
2024/02/13 07:33:03;;;;;;;7.38;2.90;;;;;;;6.99;75.20;96935.25;5009576;28;20433;-79
2024/02/13 07:35:31;;;;;;;4.47;2.80;;;;;;;7.01;76.73;96935.91;5012567;28;20057;-80
2024/02/13 07:37:59;;;;;;;4.97;2.63;;;;;;;7.06;76.74;96940.63;5012909;28;20050;-80
2024/02/13 07:40:27;;;;;;;10.23;3.35;;;;;;;7.09;75.15;96937.75;5013143;28;20464;-80
2024/02/13 07:42:55;;;;;;;13.57;3.42;;;;;;;7.13;74.34;96938.28;5032194;28;20084;-80
2024/02/13 07:45:22;;;;;;;8.02;3.50;;;;;;;7.14;73.79;96939.91;5032309;28;20080;-80
2024/02/13 07:47:51;;;;;;;8.07;2.70;;;;;;;7.16;73.69;96940.56;5032844;28;20077;-80
2024/02/13 07:50:21;;;;;;;8.68;3.10;;;;;;;7.20;73.35;96934.09;5032458;28;20050;-80
2024/02/13 07:52:48;;;;;;;9.13;3.65;;;;;;;7.28;74.20;96941.94;5032728;28;20532;-80
2024/02/13 07:55:16;;;;;;;8.05;3.22;;;;;;;7.35;73.77;96948.16;5055310;28;20041;-80
2024/02/13 07:57:43;;;;;;;11.82;3.15;;;;;;;7.40;72.58;96956.28;5053752;28;20045;-80
2024/02/13 08:00:12;;;;;;;11.50;3.85;;;;;;;7.44;73.81;96954.19;5047723;28;20429;-80
2024/02/13 08:02:40;;;;;;;13.73;4.57;;;;;;;7.42;72.28;96959.53;5031915;28;20531;-80
2024/02/13 08:05:08;;;;;;;7.22;2.80;;;;;;;7.36;71.74;96959.34;5033059;28;20054;-80
2024/02/13 08:07:37;;;;;;;6.15;2.83;;;;;;;7.35;71.68;96958.53;5032879;28;20077;-80
2024/02/13 08:10:06;;;;;;;5.13;2.17;;;;;;;7.39;72.29;96954.66;5033537;28;20144;-80
2024/02/13 08:12:33;;;;;;;8.35;2.30;;;;;;;7.46;72.49;96954.06;5032659;28;20143;-80
2024/02/13 08:15:01;;;;;;;9.95;2.55;;;;;;;7.55;71.62;96961.72;5032782;28;20111;-80
2024/02/13 08:17:29;;;;;;;4.65;2.70;;;;;;;7.58;72.43;96956.22;5033445;28;20049;-80
2024/02/13 08:19:59;;;;;;;4.03;2.15;;;;;;;7.64;73.52;96962.59;5033196;28;20053;-80
2024/02/13 08:22:27;;;;;;;15.93;3.53;;;;;;;7.68;72.57;96955.31;5032877;28;20439;-79
2024/02/13 08:25:00;;;;;;;6.63;2.90;;;;;;;7.70;72.77;96961.97;5032510;28;20140;-80
2024/02/13 08:27:29;;;;;;;9.65;3.17;;;;;;;7.75;71.95;96954.53;5032840;28;20065;-80
2024/02/13 08:29:57;;;;;;;9.43;4.10;;;;;;;7.83;72.24;96956.38;5035869;28;20135;-80
2024/02/13 08:32:26;;;;;;;5.05;2.60;;;;;;;7.93;71.72;96956.22;5035943;28;20046;-79
2024/02/13 08:34:55;;;;;;;8.40;2.95;;;;;;;8.06;74.19;96951.41;5036065;28;20115;-80
2024/02/13 08:37:23;;;;;;;6.25;3.45;;;;;;;8.12;71.93;96948.19;5035754;28;20124;-80
2024/02/13 08:39:51;;;;;;;8.82;3.35;;;;;;;8.15;71.54;96955.66;5036354;28;20103;-80
2024/02/13 08:42:20;;;;;;;4.53;3.35;;;;;;;8.22;71.44;96951.47;5036046;28;20501;-80
2024/02/13 08:44:47;;;;;;;6.45;2.60;;;;;;;8.24;70.54;96959.94;5035731;28;20132;-80
2024/02/13 08:47:16;;;;;;;7.05;2.05;;;;;;;8.23;69.88;96957.47;5035753;28;20088;-80
2024/02/13 08:49:45;;;;;;;8.13;2.45;;;;;;;8.24;69.58;96959.94;5044532;28;20049;-80
2024/02/13 08:52:12;;;;;;;6.70;2.45;;;;;;;8.27;72.99;96963.19;5057387;28;20046;-80
2024/02/13 08:54:40;;;;;;;6.00;2.30;;;;;;;8.34;74.70;96964.16;5057055;28;20065;-80
2024/02/13 08:57:08;;;;;;;8.32;2.05;;;;;;;8.40;75.32;96968.75;5046246;28;20489;-80
2024/02/13 08:59:37;;;;;;;3.60;1.30;;;;;;;8.47;74.20;96974.94;5037698;28;20145;-79
2024/02/13 09:02:08;;;;;;;12.68;2.30;;;;;;;8.57;71.57;96970.44;5036482;28;20172;-79
2024/02/13 09:04:36;;;;;;;4.95;1.60;;;;;;;8.83;72.48;96975.50;5035593;28;20099;-80
2024/02/13 09:07:04;;;;;;;17.60;2.30;;;;;;;9.08;69.44;96976.31;5035856;28;20098;-80
2024/02/13 09:09:32;;;;;;;4.60;1.70;;;;;;;9.58;69.06;96978.88;5035798;28;20132;-80
2024/02/13 09:12:00;;;;;;;7.22;2.00;;;;;;;9.78;65.67;96969.72;5035126;28;20041;-80
2024/02/13 09:14:27;;;;;;;5.13;1.48;;;;;;;10.04;65.01;96979.06;5035149;28;20085;-80
2024/02/13 09:16:57;;;;;;;8.70;2.42;;;;;;;10.89;62.32;96979.13;5035268;28;20053;-80
2024/02/13 09:19:25;;;;;;;2.90;1.20;;;;;;;11.44;62.98;96977.22;5035358;28;20583;-80
2024/02/13 09:21:53;;;;;;;4.53;1.50;;;;;;;12.00;62.27;96986.47;5035516;28;20103;-79
2024/02/13 09:24:23;;;;;;;2.80;1.20;;;;;;;12.57;62.27;96980.50;5035571;28;20099;-80
2024/02/13 09:26:52;;;;;;;6.20;1.50;;;;;;;12.96;58.43;96977.47;5035023;28;20136;-80
2024/02/13 09:29:20;;;;;;;4.47;1.25;;;;;;;13.34;56.64;96981.69;5035490;28;20049;-80
2024/02/13 09:31:48;;;;;;;5.00;2.22;;;;;;;13.99;55.08;96972.63;5034866;28;20045;-80
2024/02/13 09:34:17;;;;;;;4.93;1.38;;;;;;;14.72;55.46;96981.81;5035660;28;20109;-80
2024/02/13 09:36:45;;;;;;;2.60;1.17;;;;;;;15.40;53.83;96979.06;5035531;28;20100;-80
2024/02/13 09:39:14;;;;;;;4.50;1.40;;;;;;;15.90;51.50;96968.09;5034155;28;20080;-80
2024/02/13 09:41:42;;;;;;;4.50;1.25;;;;;;;16.25;50.54;96992.28;5034095;28;20132;-80
2024/02/13 09:44:09;;;;;;;6.32;1.52;;;;;;;16.41;49.28;96989.16;5034327;28;20080;-80
2024/02/13 09:46:37;;;;;;;2.53;1.65;;;;;;;16.51;49.07;96995.81;5034707;28;20085;-79
2024/02/13 09:49:06;;;;;;;3.88;1.80;;;;;;;16.67;50.12;96992.69;5043783;28;20084;-81
2024/02/13 09:51:39;;;;;;;7.68;2.47;;;;;;;16.67;47.61;96996.13;5047885;28;20060;-80
2024/02/13 09:54:08;;;;;;;3.47;1.13;;;;;;;16.75;46.80;96992.47;5050972;28;20054;-81
2024/02/13 09:56:38;;;;;;;4.65;1.60;;;;;;;16.96;47.90;96995.81;5047714;28;20127;-78
2024/02/13 09:59:07;;;;;;;4.13;2.17;;;;;;;17.08;46.62;96999.41;5037195;28;20140;-79
2024/02/13 10:01:34;;;;;;;5.43;2.17;;;;;;;17.11;46.25;96996.31;5035687;28;20089;-78
2024/02/13 10:04:02;;;;;;;13.95;5.20;;;;;;;17.03;45.35;96996.56;5035211;28;20123;-78
2024/02/13 10:06:30;;;;;;;10.00;5.50;;;;;;;16.98;46.23;96991.13;5035913;28;20053;-78
2024/02/13 10:09:01;;;;;;;7.13;4.18;;;;;;;17.14;47.25;97008.25;5036297;28;20144;-78
2024/02/13 10:11:34;;;;;;;5.75;2.38;;;;;;;17.29;43.92;97003.50;5037049;28;20049;-79
2024/02/13 10:14:03;;;;;;;8.43;2.90;;;;;;;17.28;45.59;97000.06;5038955;28;20057;-79
2024/02/13 10:16:30;;;;;;;9.40;3.35;;;;;;;17.19;44.77;97017.16;5040273;28;20167;-79
2024/02/13 10:19:01;;;;;;;4.25;1.92;;;;;;;16.98;45.96;97017.50;5041784;28;20095;-79
2024/02/13 10:21:30;;;;;;;5.75;2.33;;;;;;;16.91;44.93;97014.09;5042059;28;20049;-79
2024/02/13 10:24:11;;;;;;;4.75;1.70;;;;;;;16.73;43.79;97018.22;5042836;28;20064;-79
2024/02/13 10:26:39;;;;;;;5.55;1.77;;;;;;;16.61;45.48;97018.03;5043894;28;20453;-79
2024/02/13 10:29:07;;;;;;;3.17;1.48;;;;;;;16.47;43.84;97012.03;5044016;28;20068;-78
2024/02/13 10:31:36;;;;;;;6.47;2.38;;;;;;;16.39;47.12;97014.91;5044859;28;20050;-81
2024/02/13 10:34:09;;;;;;;4.43;1.33;;;;;;;16.46;45.38;97007.81;5045302;28;20049;-79
2024/02/13 10:36:39;;;;;;;3.03;1.00;;;;;;;16.56;44.24;97006.53;5046492;28;20045;-81
2024/02/13 10:39:08;;;;;;;3.75;1.23;;;;;;;16.79;45.76;97000.72;5047650;28;20132;-78
2024/02/13 10:41:39;;;;;;;2.83;1.20;;;;;;;17.02;44.88;97003.66;5047530;28;20050;-79
2024/02/13 10:44:10;;;;;;;4.90;1.35;;;;;;;17.25;45.34;97011.03;5047631;28;20050;-78
2024/02/13 10:46:39;;;;;;;3.17;1.10;;;;;;;17.50;41.85;97010.22;5049425;28;20400;-79
2024/02/13 10:49:24;;;;;;;3.53;0.90;;;;;;;17.65;44.03;97015.97;5049798;28;20050;-78
2024/02/13 10:51:55;;;;;;;5.63;0.93;;;;;;;17.93;45.41;97014.75;5049228;28;20052;-78
2024/02/13 10:54:25;;;;;;;5.18;1.48;;;;;;;18.27;44.66;97015.19;5049571;28;20041;-78
2024/02/13 10:56:57;;;;;;;4.38;1.23;;;;;;;18.44;40.55;97010.94;5050460;28;20428;-81
2024/02/13 10:59:30;;;;;;;3.17;1.15;;;;;;;18.47;41.69;97005.22;5052135;28;20596;-81
2024/02/13 11:02:00;;;;;;;4.80;1.48;;;;;;;18.63;44.05;97008.25;5053361;28;20049;-78
2024/02/13 11:04:30;;;;;;;6.00;2.25;;;;;;;18.80;42.46;96997.91;5052343;28;20128;-79
2024/02/13 11:07:00;;;;;;;2.95;1.27;;;;;;;18.98;40.31;97010.28;5053153;28;20084;-80
2024/02/13 11:09:28;;;;;;;3.33;1.38;;;;;;;19.16;39.02;97002.28;5053363;28;20052;-79
2024/02/13 11:11:59;;;;;;;1.90;1.05;;;;;;;19.35;38.24;97000.38;5050176;28;20113;-80
2024/02/13 11:14:27;;;;;;;5.22;1.58;;;;;;;19.63;40.90;96999.69;5039818;28;20095;-80
2024/02/13 11:16:57;;;;;;;5.45;1.33;;;;;;;19.72;36.84;97000.19;5034185;28;20049;-79
2024/02/13 11:19:25;;;;;;;4.07;0.95;;;;;;;19.81;38.20;97008.59;5032881;28;20056;-80
2024/02/13 11:21:56;;;;;;;3.13;0.90;;;;;;;19.92;39.58;97003.31;5033441;28;20053;-83
2024/02/13 11:24:23;;;;;;;1.48;0.60;;;;;;;20.04;39.48;96995.34;5035104;28;20124;-83
2024/02/13 11:26:51;;;;;;;2.28;0.98;;;;;;;20.19;38.10;97002.03;5036130;28;20501;-83
2024/02/13 11:29:21;;;;;;;5.10;0.95;;;;;;;20.07;37.12;96997.56;5038351;28;20052;-81
2024/02/13 11:31:57;;;;;;;2.72;0.65;;;;;;;19.91;39.47;96998.25;5039369;28;20045;-83
2024/02/13 11:34:40;;;;;;;2.35;1.05;;;;;;;19.94;36.61;96997.78;5038657;28;20111;-83
2024/02/13 11:37:19;;;;;;;2.70;1.08;;;;;;;19.92;38.77;96997.22;5037011;28;20113;-83
2024/02/13 11:39:47;;;;;;;1.98;0.73;;;;;;;19.98;36.80;96992.81;5037454;28;20124;-82
2024/02/13 11:42:18;;;;;;;2.85;0.90;;;;;;;19.96;36.12;96991.22;5036441;28;20049;-83
2024/02/13 11:44:48;;;;;;;5.15;1.27;;;;;;;20.08;40.13;96988.56;5037564;28;20140;-81
2024/02/13 11:47:19;;;;;;;2.50;0.73;;;;;;;20.34;37.20;96981.13;5037455;28;20075;-81
2024/02/13 11:49:49;;;;;;;2.17;1.20;;;;;;;20.29;36.18;96975.72;5038943;28;20041;-80
2024/02/13 11:52:17;;;;;;;4.57;1.20;;;;;;;20.11;34.79;96980.13;5037745;28;20464;-83